Аэропорт: Кневичи. Владивосток

ICAO: UHWW

METAR:
2021-01-20 02:00:00
UHWW 200200Z 00000MPS 9999 NSC M15/M24 Q1031 R25L/0///70 NOSIG RMK QFE772
METAR:
2021-01-19 22:50:00
TAF UHWW 192250Z 2000/2024 22003MPS 9999 BKN030 BECMG 2010/2012 BKN020